createdAt,value
2019-06-27T00:00:13.665Z,4.70
2019-06-27T00:02:42.856Z,3.73
2019-06-27T00:05:12.206Z,4.27
2019-06-27T00:07:41.418Z,3.80
2019-06-27T00:10:11.113Z,4.00
2019-06-27T00:12:40.298Z,4.23
2019-06-27T00:15:09.643Z,3.63
2019-06-27T00:17:38.809Z,4.47
2019-06-27T00:20:08.286Z,4.53
2019-06-27T00:22:40.883Z,3.57
2019-06-27T00:25:08.508Z,3.70
2019-06-27T00:27:37.697Z,3.60
2019-06-27T00:30:07.667Z,4.20
2019-06-27T00:32:36.853Z,3.73
2019-06-27T00:35:09.019Z,3.77
2019-06-27T00:37:38.205Z,3.53
2019-06-27T00:40:07.726Z,4.40
2019-06-27T00:42:36.890Z,4.17
2019-06-27T00:45:06.755Z,3.37
2019-06-27T00:47:35.942Z,3.17
2019-06-27T00:50:07.155Z,3.30
2019-06-27T00:52:36.474Z,3.43
2019-06-27T00:55:06.587Z,3.97
2019-06-27T00:57:36.167Z,4.43
2019-06-27T01:00:07.486Z,3.80
2019-06-27T01:02:36.732Z,3.60
2019-06-27T01:05:09.717Z,3.90
2019-06-27T01:07:38.886Z,3.83
2019-06-27T01:10:09.126Z,4.10
2019-06-27T01:12:38.304Z,3.77
2019-06-27T01:15:08.052Z,4.20
2019-06-27T01:17:37.437Z,4.50
2019-06-27T01:20:07.561Z,3.60
2019-06-27T01:22:36.769Z,4.13
2019-06-27T01:25:07.204Z,3.87
2019-06-27T01:27:36.479Z,3.43
2019-06-27T01:30:09.391Z,4.30
2019-06-27T01:32:38.521Z,3.60
2019-06-27T01:35:08.353Z,3.90
2019-06-27T01:37:37.539Z,3.27
2019-06-27T01:40:07.565Z,4.23
2019-06-27T01:42:36.907Z,3.70
2019-06-27T01:45:21.751Z,3.80
2019-06-27T01:47:50.959Z,3.00
2019-06-27T01:50:20.152Z,3.83
2019-06-27T01:52:49.390Z,3.60
2019-06-27T01:55:18.570Z,4.30
2019-06-27T01:57:47.764Z,4.00
2019-06-27T02:00:18.784Z,4.40
2019-06-27T02:02:48.097Z,3.73
2019-06-27T02:05:17.413Z,4.97
2019-06-27T02:07:46.670Z,4.37
2019-06-27T02:10:16.337Z,5.10
2019-06-27T02:12:45.525Z,5.90
2019-06-27T02:15:16.031Z,5.00
2019-06-27T02:17:45.234Z,5.00
2019-06-27T02:20:15.044Z,5.23
2019-06-27T02:22:44.251Z,4.67
2019-06-27T02:25:14.569Z,5.53
2019-06-27T02:27:43.778Z,5.40
2019-06-27T02:30:14.989Z,5.00
2019-06-27T02:32:44.174Z,4.27
2019-06-27T02:35:13.548Z,4.33
2019-06-27T02:37:42.729Z,3.80
2019-06-27T02:40:12.044Z,3.70
2019-06-27T02:42:41.513Z,3.80
2019-06-27T02:45:10.834Z,4.80
2019-06-27T02:47:40.029Z,5.23
2019-06-27T02:50:09.345Z,3.90
2019-06-27T02:52:38.517Z,3.50
2019-06-27T02:55:08.034Z,4.17
2019-06-27T02:57:37.396Z,4.17
2019-06-27T03:00:07.555Z,4.03
2019-06-27T03:02:37.750Z,4.37
2019-06-27T03:05:09.797Z,4.17
2019-06-27T03:07:39.088Z,4.47
2019-06-27T03:10:08.704Z,3.90
2019-06-27T03:12:37.990Z,4.20
2019-06-27T03:15:10.871Z,3.67
2019-06-27T03:17:40.115Z,4.13
2019-06-27T03:20:10.248Z,3.30
2019-06-27T03:22:39.426Z,3.93
2019-06-27T03:25:08.634Z,3.07
2019-06-27T03:27:37.824Z,3.83
2019-06-27T03:30:07.647Z,3.40
2019-06-27T03:32:36.895Z,3.77
2019-06-27T03:35:06.126Z,3.53
2019-06-27T03:37:35.342Z,3.47
2019-06-27T03:40:07.776Z,3.53
2019-06-27T03:42:36.950Z,3.07
2019-06-27T03:45:07.367Z,3.27
2019-06-27T03:47:36.551Z,3.70
2019-06-27T03:50:07.292Z,3.70
2019-06-27T03:52:36.476Z,3.67
2019-06-27T03:55:06.395Z,3.13
2019-06-27T03:57:35.678Z,2.90
2019-06-27T04:00:06.397Z,3.30
2019-06-27T04:02:35.616Z,3.33
2019-06-27T04:05:05.377Z,3.10
2019-06-27T04:07:34.627Z,3.67
2019-06-27T04:10:04.266Z,3.73
2019-06-27T04:12:33.513Z,3.03
2019-06-27T04:15:02.784Z,3.67
2019-06-27T04:17:31.964Z,3.63
2019-06-27T04:20:01.212Z,4.03
2019-06-27T04:22:30.419Z,3.67
2019-06-27T04:24:59.600Z,3.60
2019-06-27T04:27:28.813Z,4.47
2019-06-27T04:29:57.996Z,4.13
2019-06-27T04:32:27.157Z,4.27
2019-06-27T04:34:56.352Z,3.83
2019-06-27T04:37:25.551Z,3.63
2019-06-27T04:39:54.756Z,3.23
2019-06-27T04:42:24.013Z,3.70
2019-06-27T04:44:53.217Z,3.63
2019-06-27T04:47:22.377Z,3.73
2019-06-27T04:49:51.651Z,3.97
2019-06-27T04:52:20.804Z,4.00
2019-06-27T04:54:49.999Z,3.30
2019-06-27T04:57:19.191Z,3.63
2019-06-27T04:59:53.899Z,3.13
2019-06-27T05:02:19.258Z,4.20
2019-06-27T05:04:48.471Z,3.53
2019-06-27T05:07:17.690Z,3.60
2019-06-27T05:09:46.901Z,4.03
2019-06-27T05:12:16.053Z,3.33
2019-06-27T05:14:45.235Z,3.97
2019-06-27T05:17:14.423Z,3.80
2019-06-27T05:19:43.598Z,3.53
2019-06-27T05:22:13.739Z,3.80
2019-06-27T05:24:42.919Z,3.50
2019-06-27T05:27:12.109Z,3.03
2019-06-27T05:29:41.290Z,3.60
2019-06-27T05:32:10.493Z,3.70
2019-06-27T05:34:39.697Z,4.30
2019-06-27T05:37:09.833Z,3.50
2019-06-27T05:39:39.015Z,3.60
2019-06-27T05:42:08.203Z,4.43
2019-06-27T05:44:37.379Z,4.00
2019-06-27T05:47:06.593Z,4.33
2019-06-27T05:49:35.777Z,4.00
2019-06-27T05:52:04.944Z,4.80
2019-06-27T05:54:34.130Z,4.23
2019-06-27T05:57:03.355Z,4.33
2019-06-27T05:59:32.543Z,3.97
2019-06-27T06:02:01.739Z,4.43
2019-06-27T06:04:30.905Z,3.80
2019-06-27T06:07:00.090Z,4.63
2019-06-27T06:09:32.734Z,4.23
2019-06-27T06:12:00.220Z,4.33
2019-06-27T06:14:29.439Z,3.30
2019-06-27T06:16:58.692Z,4.17
2019-06-27T06:19:27.941Z,3.73
2019-06-27T06:21:57.110Z,3.33
2019-06-27T06:24:26.333Z,3.60
2019-06-27T06:26:55.561Z,3.13
2019-06-27T06:29:24.720Z,3.60
2019-06-27T06:31:53.909Z,3.53
2019-06-27T06:34:23.117Z,4.50
2019-06-27T06:36:52.368Z,3.30
2019-06-27T06:39:22.489Z,3.37
2019-06-27T06:41:51.716Z,3.17
2019-06-27T06:44:20.967Z,3.17
2019-06-27T06:46:50.083Z,3.07
2019-06-27T06:49:19.280Z,3.83
2019-06-27T06:51:48.490Z,3.97
2019-06-27T06:54:17.710Z,3.07
2019-06-27T06:56:46.901Z,3.67
2019-06-27T06:59:16.104Z,3.37
2019-06-27T07:01:45.864Z,3.23
2019-06-27T07:04:15.129Z,3.20
2019-06-27T07:06:44.350Z,3.20
2019-06-27T07:09:13.547Z,3.23
2019-06-27T07:11:42.725Z,3.57
2019-06-27T07:14:11.904Z,3.23
2019-06-27T07:16:41.080Z,3.30
2019-06-27T07:19:10.278Z,4.03
2019-06-27T07:21:39.515Z,3.20
2019-06-27T07:24:08.745Z,3.50
2019-06-27T07:26:37.928Z,3.00
2019-06-27T07:29:07.096Z,3.30
2019-06-27T07:31:37.347Z,3.37
2019-06-27T07:34:06.574Z,3.77
2019-06-27T07:36:35.837Z,4.23
2019-06-27T07:39:05.801Z,3.30
2019-06-27T07:41:35.044Z,4.43
2019-06-27T07:44:04.319Z,3.87
2019-06-27T07:46:33.502Z,3.57
2019-06-27T07:49:02.706Z,3.93
2019-06-27T07:51:31.902Z,4.20
2019-06-27T07:54:01.860Z,3.83
2019-06-27T07:56:31.034Z,3.30
2019-06-27T07:59:00.225Z,3.60
2019-06-27T08:01:34.920Z,3.13
2019-06-27T08:04:00.348Z,3.67
2019-06-27T08:06:29.533Z,4.10
2019-06-27T08:08:58.730Z,3.50
2019-06-27T08:11:27.983Z,2.93
2019-06-27T08:13:57.187Z,3.20
2019-06-27T08:16:26.365Z,3.10
2019-06-27T08:18:55.533Z,3.07
2019-06-27T08:21:24.715Z,3.47
2019-06-27T08:23:53.882Z,3.60
2019-06-27T08:26:23.089Z,3.13
2019-06-27T08:28:52.260Z,3.20
2019-06-27T08:31:21.451Z,3.33
2019-06-27T08:33:50.718Z,3.33
2019-06-27T08:36:19.967Z,3.60
2019-06-27T08:38:49.175Z,3.60
2019-06-27T08:41:18.364Z,3.40
2019-06-27T08:43:47.544Z,3.37
2019-06-27T08:46:18.017Z,3.37
2019-06-27T08:48:47.193Z,3.40
2019-06-27T08:51:16.398Z,3.07
2019-06-27T08:53:45.585Z,3.40
2019-06-27T08:56:14.767Z,3.03
2019-06-27T08:58:43.965Z,3.90
2019-06-27T09:01:13.145Z,3.50
2019-06-27T09:03:42.383Z,3.57
2019-06-27T09:06:11.568Z,3.50
2019-06-27T09:08:41.747Z,3.50
2019-06-27T09:11:11.384Z,3.87
2019-06-27T09:13:40.564Z,3.70
2019-06-27T09:16:09.763Z,3.73
2019-06-27T09:18:38.928Z,3.43
2019-06-27T09:21:09.099Z,3.90
2019-06-27T09:23:38.273Z,4.03
2019-06-27T09:26:07.549Z,3.53
2019-06-27T09:28:36.712Z,4.00
2019-06-27T09:31:05.912Z,4.20
2019-06-27T09:33:35.103Z,4.27
2019-06-27T09:36:04.806Z,3.97
2019-06-27T09:38:34.184Z,4.80
2019-06-27T09:41:03.423Z,4.23
2019-06-27T09:43:32.595Z,3.57
2019-06-27T09:46:01.873Z,3.70
2019-06-27T09:48:31.969Z,3.70
2019-06-27T09:51:01.149Z,4.10
2019-06-27T09:53:30.344Z,4.20
2019-06-27T09:55:59.612Z,3.50
2019-06-27T09:58:28.821Z,3.77
2019-06-27T10:00:58.092Z,3.60
2019-06-27T10:03:27.370Z,3.37
2019-06-27T10:05:56.542Z,3.50
2019-06-27T10:08:25.764Z,3.43
2019-06-27T10:10:55.022Z,3.53
2019-06-27T10:13:24.448Z,4.30
2019-06-27T10:15:53.577Z,3.77
2019-06-27T10:18:22.727Z,4.43
2019-06-27T10:20:52.027Z,3.70
2019-06-27T10:23:21.198Z,4.03
2019-06-27T10:25:50.391Z,3.70
2019-06-27T10:28:19.592Z,4.10
2019-06-27T10:30:49.369Z,4.53
2019-06-27T10:33:18.774Z,4.67
2019-06-27T10:35:47.963Z,4.30
2019-06-27T10:38:17.163Z,4.50
2019-06-27T10:40:47.323Z,4.87
2019-06-27T10:43:16.503Z,4.47
2019-06-27T10:45:45.730Z,4.00
2019-06-27T10:48:14.928Z,4.10
2019-06-27T10:50:46.503Z,4.17
2019-06-27T10:53:14.996Z,4.30
2019-06-27T10:55:44.193Z,4.50
2019-06-27T10:58:13.417Z,3.93
2019-06-27T11:00:42.590Z,4.60
2019-06-27T11:03:16.052Z,4.57
2019-06-27T11:05:42.669Z,5.30
2019-06-27T11:08:11.867Z,4.60
2019-06-27T11:10:41.075Z,4.37
2019-06-27T11:13:10.281Z,4.67
2019-06-27T11:15:39.459Z,4.43
2019-06-27T11:18:08.717Z,4.27
2019-06-27T11:20:37.922Z,4.97
2019-06-27T11:23:07.129Z,4.40
2019-06-27T11:25:36.295Z,4.40
2019-06-27T11:28:05.490Z,4.83
2019-06-27T11:30:34.667Z,4.87
2019-06-27T11:33:03.961Z,4.23
2019-06-27T11:35:33.143Z,5.50
2019-06-27T11:38:02.384Z,4.97
2019-06-27T11:40:31.652Z,4.87
2019-06-27T11:43:00.835Z,4.50
2019-06-27T11:45:30.218Z,4.80
2019-06-27T11:47:59.422Z,4.93
2019-06-27T11:50:28.603Z,4.57
2019-06-27T11:52:57.783Z,4.50
2019-06-27T11:55:26.977Z,4.37
2019-06-27T11:57:56.816Z,4.17
2019-06-27T12:00:26.194Z,5.23
2019-06-27T12:02:55.328Z,4.83
2019-06-27T12:05:24.517Z,4.90
2019-06-27T12:07:53.711Z,4.50
2019-06-27T12:10:23.361Z,4.73
2019-06-27T12:12:52.546Z,4.43
2019-06-27T12:15:21.772Z,4.37
2019-06-27T12:17:51.365Z,4.20
2019-06-27T12:20:20.640Z,3.97
2019-06-27T12:22:49.898Z,4.53
2019-06-27T12:25:19.536Z,4.20
2019-06-27T12:27:48.725Z,4.73
2019-06-27T12:30:18.397Z,4.70
2019-06-27T12:32:52.429Z,4.10
2019-06-27T12:35:18.605Z,4.90
2019-06-27T12:37:47.784Z,5.07
2019-06-27T12:40:17.207Z,5.73
2019-06-27T12:42:46.929Z,4.33
2019-06-27T12:45:16.549Z,4.13
2019-06-27T12:47:45.752Z,4.30
2019-06-27T12:50:16.634Z,4.70
2019-06-27T12:52:45.843Z,4.13
2019-06-27T12:55:15.042Z,4.67
2019-06-27T12:57:44.244Z,4.23
2019-06-27T13:00:14.565Z,4.20
2019-06-27T13:02:43.743Z,4.30
2019-06-27T13:05:13.067Z,3.97
2019-06-27T13:07:42.249Z,4.27
2019-06-27T13:10:11.591Z,4.50
2019-06-27T13:12:40.793Z,4.37
2019-06-27T13:15:10.240Z,4.33
2019-06-27T13:17:39.406Z,3.90
2019-06-27T13:20:09.138Z,3.30
2019-06-27T13:22:38.331Z,3.77
2019-06-27T13:25:07.972Z,3.87
2019-06-27T13:27:37.167Z,3.13
2019-06-27T13:30:07.283Z,4.10
2019-06-27T13:32:36.505Z,4.20
2019-06-27T13:35:06.551Z,3.50
2019-06-27T13:37:35.752Z,3.57
2019-06-27T13:40:06.361Z,2.93
2019-06-27T13:42:38.241Z,3.50
2019-06-27T13:45:07.471Z,3.67
2019-06-27T13:47:36.719Z,3.20
2019-06-27T13:50:07.073Z,3.70
2019-06-27T13:52:37.204Z,4.10
2019-06-27T13:55:07.023Z,3.80
2019-06-27T13:57:36.218Z,3.70
2019-06-27T14:00:09.312Z,4.67
2019-06-27T14:02:38.487Z,4.57
2019-06-27T14:05:08.133Z,5.23
2019-06-27T14:07:37.379Z,4.23
2019-06-27T14:10:08.321Z,4.83
2019-06-27T14:12:37.533Z,4.43
2019-06-27T14:15:10.222Z,4.80
2019-06-27T14:17:39.412Z,4.10
2019-06-27T14:20:09.276Z,3.93
2019-06-27T14:22:38.458Z,4.57
2019-06-27T14:25:08.011Z,4.53
2019-06-27T14:27:37.189Z,4.50
2019-06-27T14:30:09.646Z,4.80
2019-06-27T14:32:38.837Z,4.47
2019-06-27T14:35:15.201Z,4.50
2019-06-27T14:37:39.342Z,3.93
2019-06-27T14:40:09.554Z,4.10
2019-06-27T14:42:38.763Z,4.40
2019-06-27T14:45:08.209Z,3.83
2019-06-27T14:47:37.387Z,3.70
2019-06-27T14:50:07.408Z,4.20
2019-06-27T14:52:36.596Z,3.97
2019-06-27T14:55:07.358Z,3.87
2019-06-27T14:57:36.658Z,4.00
2019-06-27T15:00:07.708Z,4.47
2019-06-27T15:02:36.878Z,4.27
2019-06-27T15:05:07.586Z,4.57
2019-06-27T15:07:36.791Z,3.93
2019-06-27T15:10:07.788Z,4.40
2019-06-27T15:12:36.967Z,4.27
2019-06-27T15:15:06.884Z,4.47
2019-06-27T15:17:36.076Z,5.13
2019-06-27T15:20:06.929Z,5.07
2019-06-27T15:22:36.110Z,4.70
2019-06-27T15:25:08.553Z,4.30
2019-06-27T15:27:37.773Z,4.97
2019-06-27T15:30:07.775Z,4.77
2019-06-27T15:32:37.049Z,4.57
2019-06-27T15:35:07.371Z,4.23
2019-06-27T15:37:36.554Z,4.23
2019-06-27T15:40:07.368Z,4.10
2019-06-27T15:42:36.579Z,4.17
2019-06-27T15:45:10.415Z,4.23
2019-06-27T15:47:39.602Z,4.67
2019-06-27T15:50:10.825Z,4.13
2019-06-27T15:52:40.081Z,4.97
2019-06-27T15:55:12.189Z,4.50
2019-06-27T15:57:40.716Z,4.40
2019-06-27T16:00:11.790Z,4.00
2019-06-27T16:02:41.198Z,4.10
2019-06-27T16:05:10.764Z,4.30
2019-06-27T16:07:40.007Z,4.50
2019-06-27T16:10:09.709Z,3.80
2019-06-27T16:12:38.869Z,4.50
2019-06-27T16:15:08.582Z,4.03
2019-06-27T16:17:37.775Z,4.40
2019-06-27T16:20:09.021Z,4.43
2019-06-27T16:22:38.198Z,3.63
2019-06-27T16:25:08.203Z,3.97
2019-06-27T16:27:37.292Z,3.93
2019-06-27T16:30:09.128Z,3.67
2019-06-27T16:32:38.343Z,4.07
2019-06-27T16:35:07.967Z,4.30
2019-06-27T16:37:37.157Z,4.90
2019-06-27T16:40:07.737Z,4.37
2019-06-27T16:42:37.010Z,4.27
2019-06-27T16:45:10.801Z,4.37
2019-06-27T16:47:39.971Z,4.30
2019-06-27T16:50:09.721Z,4.37
2019-06-27T16:52:38.891Z,4.63
2019-06-27T16:55:08.422Z,4.53
2019-06-27T16:57:37.621Z,4.30
2019-06-27T17:00:07.555Z,4.97
2019-06-27T17:02:36.836Z,5.10
2019-06-27T17:05:07.053Z,4.67
2019-06-27T17:07:36.246Z,4.33
2019-06-27T17:10:06.790Z,4.60
2019-06-27T17:12:36.057Z,4.70
2019-06-27T17:15:07.581Z,4.70
2019-06-27T17:17:36.792Z,4.63
2019-06-27T17:20:07.528Z,5.03
2019-06-27T17:22:36.710Z,4.80
2019-06-27T17:25:06.933Z,4.30
2019-06-27T17:27:36.213Z,4.63
2019-06-27T17:30:10.406Z,5.53
2019-06-27T17:32:39.599Z,4.20
2019-06-27T17:35:08.917Z,4.73
2019-06-27T17:37:38.091Z,4.60
2019-06-27T17:40:10.144Z,5.10
2019-06-27T17:42:39.685Z,4.73
2019-06-27T17:45:09.140Z,4.23
2019-06-27T17:47:38.359Z,4.80
2019-06-27T17:50:07.893Z,5.23
2019-06-27T17:52:37.099Z,4.73
2019-06-27T17:55:07.411Z,4.47
2019-06-27T17:57:36.586Z,5.27
2019-06-27T18:00:07.800Z,4.93
2019-06-27T18:02:37.041Z,4.80
2019-06-27T18:05:06.390Z,5.10
2019-06-27T18:07:35.572Z,4.47
2019-06-27T18:10:05.582Z,4.87
2019-06-27T18:12:34.786Z,5.40
2019-06-27T18:15:06.009Z,6.07
2019-06-27T18:17:35.350Z,4.43
2019-06-27T18:20:06.166Z,4.50
2019-06-27T18:22:35.338Z,4.40
2019-06-27T18:25:05.542Z,4.70
2019-06-27T18:27:34.726Z,4.90
2019-06-27T18:30:06.012Z,3.50
2019-06-27T18:32:35.209Z,4.07
2019-06-27T18:35:04.834Z,4.37
2019-06-27T18:37:34.005Z,4.37
2019-06-27T18:40:03.329Z,4.70
2019-06-27T18:42:32.531Z,4.27
2019-06-27T18:45:01.726Z,4.30
2019-06-27T18:47:30.968Z,5.10
2019-06-27T18:50:00.153Z,5.37
2019-06-27T18:52:29.327Z,4.50
2019-06-27T18:54:58.758Z,4.53
2019-06-27T18:57:27.930Z,4.63
2019-06-27T18:59:57.111Z,4.60
2019-06-27T19:02:26.291Z,4.50
2019-06-27T19:04:55.489Z,4.57
2019-06-27T19:07:24.670Z,4.40
2019-06-27T19:09:55.564Z,5.13
2019-06-27T19:12:24.764Z,4.50
2019-06-27T19:14:53.949Z,4.67
2019-06-27T19:17:26.646Z,4.40
2019-06-27T19:19:55.679Z,4.67
2019-06-27T19:22:43.010Z,5.00
2019-06-27T19:25:13.980Z,5.00
2019-06-27T19:27:43.162Z,4.67
2019-06-27T19:30:12.371Z,4.90
2019-06-27T19:32:41.524Z,4.90
2019-06-27T19:35:10.786Z,4.60
2019-06-27T19:37:39.962Z,4.80
2019-06-27T19:40:09.684Z,5.47
2019-06-27T19:42:38.890Z,4.90
2019-06-27T19:45:08.207Z,5.07
2019-06-27T19:47:37.380Z,5.20
2019-06-27T19:50:07.026Z,4.80
2019-06-27T19:52:36.219Z,5.30
2019-06-27T19:55:06.544Z,5.10
2019-06-27T19:57:35.776Z,5.27
2019-06-27T20:00:06.609Z,4.63
2019-06-27T20:02:35.799Z,5.17
2019-06-27T20:05:08.511Z,4.67
2019-06-27T20:07:37.770Z,4.77
2019-06-27T20:10:11.512Z,5.00
2019-06-27T20:12:39.185Z,5.17
2019-06-27T20:15:09.152Z,5.60
2019-06-27T20:17:40.174Z,4.90
2019-06-27T20:20:09.521Z,5.00
2019-06-27T20:22:38.703Z,4.83
2019-06-27T20:25:08.406Z,5.23
2019-06-27T20:27:37.538Z,4.90
2019-06-27T20:30:09.309Z,4.90
2019-06-27T20:32:38.489Z,4.77
2019-06-27T20:35:09.218Z,4.87
2019-06-27T20:37:38.447Z,5.00
2019-06-27T20:40:09.163Z,5.70
2019-06-27T20:42:38.442Z,5.13
2019-06-27T20:45:09.069Z,4.83
2019-06-27T20:47:38.326Z,4.70
2019-06-27T20:50:08.488Z,4.80
2019-06-27T20:52:37.653Z,4.60
2019-06-27T20:55:07.006Z,4.87
2019-06-27T20:57:36.247Z,5.07
2019-06-27T21:00:09.468Z,4.93
2019-06-27T21:02:38.659Z,5.03
2019-06-27T21:05:08.691Z,4.37
2019-06-27T21:07:56.193Z,4.23
2019-06-27T21:10:25.468Z,4.27
2019-06-27T21:12:54.636Z,4.93
2019-06-27T21:15:23.881Z,4.80
2019-06-27T21:17:53.067Z,4.30
2019-06-27T21:20:22.276Z,4.80
2019-06-27T21:22:51.507Z,4.30
2019-06-27T21:25:20.810Z,5.20
2019-06-27T21:27:49.983Z,4.97
2019-06-27T21:30:19.502Z,4.23
2019-06-27T21:32:48.798Z,4.50
2019-06-27T21:35:17.953Z,5.90
2019-06-27T21:37:47.141Z,5.13
2019-06-27T21:40:17.053Z,5.00
2019-06-27T21:42:46.338Z,5.23
2019-06-27T21:45:15.828Z,5.30
2019-06-27T21:47:45.042Z,4.57
2019-06-27T21:50:14.643Z,5.53
2019-06-27T21:52:45.406Z,4.30
2019-06-27T21:55:15.114Z,4.90
2019-06-27T21:57:44.301Z,4.60
2019-06-27T22:00:14.044Z,4.53
2019-06-27T22:02:43.224Z,4.10
2019-06-27T22:05:13.927Z,4.67
2019-06-27T22:07:43.120Z,4.80
2019-06-27T22:10:12.835Z,4.80
2019-06-27T22:12:49.132Z,3.93
2019-06-27T22:15:18.473Z,4.53
2019-06-27T22:17:47.634Z,4.43
2019-06-27T22:20:17.369Z,4.27
2019-06-27T22:22:46.567Z,3.97
2019-06-27T22:25:16.202Z,4.70
2019-06-27T22:27:45.376Z,4.43
2019-06-27T22:30:15.126Z,5.10
2019-06-27T22:32:44.444Z,4.43
2019-06-27T22:35:13.953Z,4.60
2019-06-27T22:38:00.772Z,4.80
2019-06-27T22:40:47.599Z,5.17
2019-06-27T22:43:34.909Z,5.40
2019-06-27T22:46:22.264Z,4.60
2019-06-27T22:48:51.402Z,5.13
2019-06-27T22:51:27.771Z,4.23
2019-06-27T22:53:58.612Z,4.63
2019-06-27T22:56:27.805Z,5.00
2019-06-27T22:58:56.985Z,5.60
2019-06-27T23:01:26.195Z,5.07
2019-06-27T23:03:55.367Z,5.03
2019-06-27T23:06:24.555Z,4.83
2019-06-27T23:08:53.732Z,4.67
2019-06-27T23:11:22.900Z,4.90
2019-06-27T23:13:52.076Z,5.87
2019-06-27T23:16:21.247Z,4.60
2019-06-27T23:18:50.437Z,4.77
2019-06-27T23:21:21.629Z,5.23
2019-06-27T23:23:51.182Z,5.13
2019-06-27T23:26:20.488Z,5.07
2019-06-27T23:28:49.667Z,5.43
2019-06-27T23:31:18.861Z,5.73
2019-06-27T23:33:48.049Z,4.90
2019-06-27T23:36:17.236Z,5.37
2019-06-27T23:38:46.481Z,5.53
2019-06-27T23:41:15.680Z,5.33
2019-06-27T23:43:45.244Z,4.67
2019-06-27T23:46:31.922Z,4.53
2019-06-27T23:49:01.118Z,5.30
2019-06-27T23:51:30.310Z,5.40
2019-06-27T23:53:59.470Z,4.47
2019-06-27T23:56:29.652Z,4.57
2019-06-27T23:58:58.848Z,5.13
